createdAt,value
2017-11-13T00:01:41.437Z,0.70
2017-11-13T00:04:09.085Z,1.20
2017-11-13T00:06:36.878Z,1.30
2017-11-13T00:09:04.681Z,16.73
2017-11-13T00:11:32.533Z,2.43
2017-11-13T00:14:12.082Z,0.80
2017-11-13T00:16:39.972Z,1.37
2017-11-13T00:19:07.588Z,1.03
2017-11-13T00:21:36.060Z,1.27
2017-11-13T00:24:04.359Z,1.00
2017-11-13T00:26:32.057Z,3.17
2017-11-13T00:28:59.627Z,1.67
2017-11-13T00:31:27.179Z,1.30
2017-11-13T00:33:55.053Z,1.20
2017-11-13T00:36:36.616Z,1.73
2017-11-13T00:39:04.498Z,1.00
2017-11-13T00:41:32.015Z,0.90
2017-11-13T00:44:13.897Z,0.70
2017-11-13T00:46:42.231Z,1.00
2017-11-13T00:49:09.784Z,0.70
2017-11-13T00:51:39.302Z,0.70
2017-11-13T00:54:06.855Z,1.10
2017-11-13T00:56:39.400Z,0.70
2017-11-13T00:59:06.922Z,0.97
2017-11-13T01:01:34.853Z,0.80
2017-11-13T01:04:17.401Z,0.60
2017-11-13T01:06:45.222Z,0.70
2017-11-13T01:09:13.690Z,0.80
2017-11-13T01:11:41.240Z,0.70
2017-11-13T01:14:28.873Z,1.10
2017-11-13T01:16:56.472Z,0.67
2017-11-13T01:19:24.250Z,0.80
2017-11-13T01:21:53.832Z,0.70
2017-11-13T01:24:22.138Z,0.80
2017-11-13T01:26:49.692Z,0.90
2017-11-13T01:29:17.224Z,0.60
2017-11-13T01:31:44.750Z,0.60
2017-11-13T01:34:13.089Z,0.60
2017-11-13T01:36:40.606Z,0.70
2017-11-13T01:39:08.961Z,0.63
2017-11-13T01:41:37.560Z,0.70
2017-11-13T01:44:05.857Z,0.90
2017-11-13T01:46:33.383Z,1.20
2017-11-13T01:49:00.983Z,1.00
2017-11-13T01:51:28.496Z,0.97
2017-11-13T01:53:56.057Z,0.60
2017-11-13T01:56:23.611Z,0.60
2017-11-13T01:58:51.431Z,0.60
2017-11-13T02:01:18.944Z,0.70
2017-11-13T02:03:46.448Z,0.60
2017-11-13T02:06:14.016Z,0.63
2017-11-13T02:08:41.546Z,0.70
2017-11-13T02:11:09.864Z,0.70
2017-11-13T02:13:37.358Z,0.70
2017-11-13T02:16:05.168Z,0.60
2017-11-13T02:18:32.663Z,0.60
2017-11-13T02:21:03.247Z,0.70
2017-11-13T02:23:31.558Z,0.60
2017-11-13T02:26:00.527Z,0.73
2017-11-13T02:28:28.071Z,0.60
2017-11-13T02:30:56.353Z,0.60
2017-11-13T02:33:24.968Z,0.80
2017-11-13T02:35:53.402Z,0.60
2017-11-13T02:38:21.702Z,0.87
2017-11-13T02:40:49.332Z,0.70
2017-11-13T02:43:17.633Z,2.43
2017-11-13T02:45:45.933Z,0.70
2017-11-13T02:48:25.480Z,0.60
2017-11-13T02:50:53.354Z,0.60
2017-11-13T02:53:20.864Z,1.17
2017-11-13T02:55:48.948Z,0.90
2017-11-13T02:58:17.280Z,0.60
2017-11-13T03:00:44.780Z,0.60
2017-11-13T03:03:12.328Z,0.60
2017-11-13T03:05:39.830Z,0.70
2017-11-13T03:08:07.374Z,0.60
2017-11-13T03:10:35.667Z,0.67
2017-11-13T03:13:03.578Z,0.63
2017-11-13T03:15:31.093Z,0.60
2017-11-13T03:17:58.617Z,0.67
2017-11-13T03:20:26.138Z,0.60
2017-11-13T03:22:53.667Z,0.70
2017-11-13T03:25:21.185Z,0.70
2017-11-13T03:27:48.699Z,0.60
2017-11-13T03:30:16.602Z,2.00
2017-11-13T03:32:44.175Z,0.63
2017-11-13T03:35:12.481Z,0.80
2017-11-13T03:37:40.832Z,2.40
2017-11-13T03:40:08.334Z,0.70
2017-11-13T03:42:35.859Z,0.70
2017-11-13T03:45:03.383Z,0.60
2017-11-13T03:47:31.240Z,1.50
2017-11-13T03:50:03.684Z,0.60
2017-11-13T03:52:31.564Z,0.77
2017-11-13T03:54:59.066Z,0.80
2017-11-13T03:57:26.663Z,0.70
2017-11-13T03:59:54.194Z,0.67
2017-11-13T04:02:21.721Z,0.60
2017-11-13T04:04:49.250Z,0.60
2017-11-13T04:07:17.522Z,0.70
2017-11-13T04:09:46.139Z,0.80
2017-11-13T04:12:13.671Z,0.80
2017-11-13T04:14:41.946Z,0.70
2017-11-13T04:17:09.499Z,2.03
2017-11-13T04:19:37.792Z,0.90
2017-11-13T04:22:06.086Z,0.70
2017-11-13T04:24:33.586Z,0.70
2017-11-13T04:27:01.129Z,1.10
2017-11-13T04:29:28.631Z,1.17
2017-11-13T04:31:56.556Z,0.70
2017-11-13T04:34:24.056Z,1.17
2017-11-13T04:36:51.579Z,0.70
2017-11-13T04:39:19.101Z,0.70
2017-11-13T04:41:47.382Z,0.80
2017-11-13T04:44:14.911Z,2.77
2017-11-13T04:46:43.206Z,0.87
2017-11-13T04:49:11.821Z,3.00
2017-11-13T04:51:39.326Z,1.73
2017-11-13T04:54:06.860Z,1.37
2017-11-13T04:56:34.402Z,0.70
2017-11-13T04:59:01.912Z,0.70
2017-11-13T05:01:29.435Z,0.60
2017-11-13T05:03:56.958Z,1.43
2017-11-13T05:06:25.558Z,1.53
2017-11-13T05:08:53.094Z,0.67
2017-11-13T05:11:21.479Z,0.80
2017-11-13T05:13:49.814Z,0.80
2017-11-13T05:16:17.312Z,0.83
2017-11-13T05:18:44.866Z,0.80
2017-11-13T05:21:12.396Z,0.70
2017-11-13T05:23:40.226Z,1.97
2017-11-13T05:26:07.753Z,3.53
2017-11-13T05:28:40.298Z,0.80
2017-11-13T05:31:07.807Z,0.70
2017-11-13T05:33:35.316Z,2.20
2017-11-13T05:36:02.869Z,0.90
2017-11-13T05:38:30.388Z,1.10
2017-11-13T05:40:58.684Z,2.20
2017-11-13T05:43:26.196Z,0.60
2017-11-13T05:45:54.826Z,0.63
2017-11-13T05:48:22.343Z,0.70
2017-11-13T05:50:49.852Z,0.80
2017-11-13T05:53:17.391Z,0.60
2017-11-13T05:55:44.924Z,0.70
2017-11-13T05:58:12.474Z,3.43
2017-11-13T06:00:39.982Z,1.10
2017-11-13T06:03:07.851Z,0.70
2017-11-13T06:05:35.375Z,1.87
2017-11-13T06:08:02.918Z,0.70
2017-11-13T06:10:30.465Z,1.53
2017-11-13T06:12:57.970Z,0.80
2017-11-13T06:15:26.278Z,0.63
2017-11-13T06:17:53.799Z,0.70
2017-11-13T06:20:21.329Z,1.43
2017-11-13T06:22:49.593Z,1.37
2017-11-13T06:25:19.352Z,2.10
2017-11-13T06:27:47.640Z,0.70
2017-11-13T06:30:15.943Z,5.30
2017-11-13T06:32:43.454Z,0.60
2017-11-13T06:35:11.762Z,2.40
2017-11-13T06:37:39.395Z,1.10
2017-11-13T06:40:07.708Z,0.87
2017-11-13T06:42:35.343Z,0.70
2017-11-13T06:45:02.867Z,0.93
2017-11-13T06:47:30.529Z,0.90
2017-11-13T06:49:58.038Z,3.13
2017-11-13T06:52:26.370Z,1.33
2017-11-13T06:54:53.885Z,2.30
2017-11-13T06:57:22.177Z,0.80
2017-11-13T06:59:49.692Z,0.80
2017-11-13T07:02:17.226Z,0.63
2017-11-13T07:04:44.741Z,0.80
2017-11-13T07:07:13.092Z,0.60
2017-11-13T07:09:40.639Z,0.90
2017-11-13T07:12:08.176Z,1.83
2017-11-13T07:20:16.602Z,1.10
2017-11-13T07:22:44.156Z,0.70
2017-11-13T07:25:11.674Z,1.87
2017-11-13T07:27:39.208Z,2.40
2017-11-13T07:30:06.751Z,0.63
2017-11-13T07:32:35.076Z,0.90
2017-11-13T07:35:04.614Z,0.90
2017-11-13T07:37:32.971Z,0.60
2017-11-13T07:40:00.547Z,0.70
2017-11-13T07:42:28.976Z,0.67
2017-11-13T07:44:56.495Z,0.83
2017-11-13T07:47:24.804Z,2.10
2017-11-13T07:49:52.315Z,1.30
2017-11-13T07:52:19.878Z,1.37
2017-11-13T07:54:47.431Z,0.90
2017-11-13T07:57:14.952Z,1.60
2017-11-13T07:59:42.502Z,1.37
2017-11-13T08:02:10.109Z,0.90
2017-11-13T08:04:37.638Z,2.00
2017-11-13T08:07:05.212Z,0.60
2017-11-13T08:09:32.734Z,0.70
2017-11-13T08:12:00.266Z,3.80
2017-11-13T08:14:27.762Z,0.80
2017-11-13T08:16:55.318Z,1.33
2017-11-13T08:19:22.909Z,0.70
2017-11-13T08:21:50.422Z,1.17
2017-11-13T08:24:18.733Z,0.80
2017-11-13T08:26:46.251Z,0.70
2017-11-13T08:29:14.549Z,0.70
2017-11-13T08:31:42.808Z,0.67
2017-11-13T08:34:11.110Z,13.43
2017-11-13T08:36:38.628Z,0.60
2017-11-13T08:39:06.158Z,0.60
2017-11-13T08:41:33.666Z,0.70
2017-11-13T08:44:01.990Z,0.60
2017-11-13T08:46:29.503Z,0.70
2017-11-13T08:48:57.826Z,0.60
2017-11-13T08:51:25.348Z,1.77
2017-11-13T08:53:53.677Z,0.70
2017-11-13T08:56:21.184Z,0.60
2017-11-13T08:58:49.481Z,1.07
2017-11-13T09:01:17.008Z,1.10
2017-11-13T09:03:44.547Z,0.67
2017-11-13T09:06:12.212Z,0.70
2017-11-13T09:08:39.760Z,0.80
2017-11-13T09:11:07.347Z,0.70
2017-11-13T09:13:34.882Z,1.33
2017-11-13T09:16:02.386Z,6.63
2017-11-13T09:18:29.921Z,0.67
2017-11-13T09:20:57.430Z,1.17
2017-11-13T09:23:24.964Z,0.93
2017-11-13T09:25:52.468Z,0.90
2017-11-13T09:28:20.036Z,1.00
2017-11-13T09:30:47.566Z,0.70
2017-11-13T09:33:15.126Z,0.70
2017-11-13T09:35:42.675Z,0.90
2017-11-13T09:38:10.230Z,0.83
2017-11-13T09:40:37.805Z,0.70
2017-11-13T09:43:05.342Z,0.73
2017-11-13T09:45:32.883Z,1.10
2017-11-13T09:48:00.409Z,8.00
2017-11-13T09:50:27.959Z,5.17
2017-11-13T09:52:55.487Z,5.27
2017-11-13T09:55:23.791Z,6.87
2017-11-13T09:57:51.327Z,5.43
2017-11-13T10:00:19.705Z,7.73
2017-11-13T10:02:47.972Z,9.47
2017-11-13T10:05:15.514Z,12.60
2017-11-13T10:07:43.031Z,9.50
2017-11-13T10:10:11.338Z,13.53
2017-11-13T10:12:38.872Z,9.00
2017-11-13T10:15:06.416Z,11.50
2017-11-13T10:17:33.925Z,11.33
2017-11-13T10:20:01.499Z,13.00
2017-11-13T10:22:29.006Z,14.43
2017-11-13T10:24:56.539Z,16.07
2017-11-13T10:27:24.816Z,17.43
2017-11-13T10:29:53.145Z,14.60
2017-11-13T10:32:20.667Z,20.80
2017-11-13T10:34:48.220Z,18.43
2017-11-13T10:37:16.505Z,19.70
2017-11-13T10:39:44.823Z,16.37
2017-11-13T10:42:12.342Z,19.90
2017-11-13T10:44:40.642Z,18.63
2017-11-13T10:47:08.153Z,18.00
2017-11-13T10:49:35.962Z,19.37
2017-11-13T10:52:03.487Z,18.37
2017-11-13T10:54:31.836Z,1.97
2017-11-13T10:56:59.373Z,0.70
2017-11-13T10:59:26.890Z,2.33
2017-11-13T11:01:55.217Z,0.70
2017-11-13T11:04:22.743Z,2.00
2017-11-13T11:06:50.276Z,0.73
2017-11-13T11:09:18.571Z,0.83
2017-11-13T11:11:46.885Z,1.57
2017-11-13T11:14:17.214Z,0.70
2017-11-13T11:16:50.356Z,2.70
2017-11-13T11:19:34.415Z,2.77
2017-11-13T11:22:03.606Z,0.70
2017-11-13T11:24:31.878Z,2.60
2017-11-13T11:27:16.245Z,1.03
2017-11-13T11:29:49.009Z,0.90
2017-11-13T11:32:21.395Z,12.83
2017-11-13T11:35:03.834Z,15.83
2017-11-13T11:37:33.207Z,17.00
2017-11-13T11:40:01.511Z,17.47
2017-11-13T11:42:29.854Z,12.00
2017-11-13T11:45:09.057Z,11.20
2017-11-13T11:47:36.595Z,12.50
2017-11-13T11:50:04.144Z,15.40
2017-11-13T11:52:31.672Z,21.43
2017-11-13T11:55:05.697Z,15.53
2017-11-13T11:57:34.002Z,12.47
2017-11-13T12:00:01.513Z,12.33
2017-11-13T12:02:29.064Z,13.10
2017-11-13T12:04:56.588Z,12.80
2017-11-13T12:07:24.137Z,15.87
2017-11-13T12:09:51.651Z,10.20
2017-11-13T12:12:19.197Z,14.33
2017-11-13T12:14:46.699Z,13.63
2017-11-13T12:17:14.993Z,14.93
2017-11-13T12:19:42.517Z,18.33
2017-11-13T12:22:10.048Z,10.07
2017-11-13T12:24:37.638Z,16.70
2017-11-13T12:27:05.948Z,15.23
2017-11-13T12:29:33.491Z,16.30
2017-11-13T12:32:01.827Z,12.10
2017-11-13T12:34:29.346Z,19.23
2017-11-13T12:36:56.885Z,13.53
2017-11-13T12:39:25.155Z,13.30
2017-11-13T12:41:52.705Z,15.53
2017-11-13T12:44:20.258Z,18.30
2017-11-13T12:46:47.800Z,15.00
2017-11-13T12:49:15.298Z,10.83
2017-11-13T12:51:43.089Z,13.40
2017-11-13T12:54:12.411Z,10.03
2017-11-13T12:56:40.697Z,10.57
2017-11-13T12:59:08.266Z,9.00
2017-11-13T13:01:35.776Z,12.90
2017-11-13T13:04:04.480Z,9.50
2017-11-13T13:06:31.983Z,11.47
2017-11-13T13:08:59.498Z,17.03
2017-11-13T13:11:27.808Z,9.63
2017-11-13T13:13:55.321Z,9.00
2017-11-13T13:16:23.633Z,9.57
2017-11-13T13:18:51.138Z,15.97
2017-11-13T13:21:18.704Z,11.53
2017-11-13T13:23:47.017Z,11.07
2017-11-13T13:26:14.598Z,10.93
2017-11-13T13:28:42.408Z,8.53
2017-11-13T13:31:10.705Z,6.90
2017-11-13T13:33:39.004Z,10.30
2017-11-13T13:36:06.565Z,6.60
2017-11-13T13:38:34.088Z,11.70
2017-11-13T13:41:02.400Z,13.13
2017-11-13T13:43:29.908Z,8.60
2017-11-13T13:45:57.711Z,11.80
2017-11-13T13:48:25.984Z,11.90
2017-11-13T13:50:54.271Z,11.87
2017-11-13T13:53:22.567Z,14.50
2017-11-13T13:55:50.858Z,9.23
2017-11-13T13:58:18.393Z,9.20
2017-11-13T14:00:45.912Z,13.33
2017-11-13T14:03:14.344Z,12.03
2017-11-13T14:05:41.888Z,12.17
2017-11-13T14:08:10.436Z,8.50
2017-11-13T14:10:37.976Z,7.77
2017-11-13T14:13:05.513Z,12.07
2017-11-13T14:15:33.080Z,8.43
2017-11-13T14:18:00.588Z,9.20
2017-11-13T14:20:28.142Z,11.97
2017-11-13T14:22:55.655Z,6.00
2017-11-13T14:25:23.462Z,7.87
2017-11-13T14:28:14.229Z,11.10
2017-11-13T14:36:32.240Z,12.13
2017-11-13T14:42:23.468Z,7.23
2017-11-13T14:45:01.138Z,7.90
2017-11-13T14:50:39.579Z,10.33
2017-11-13T14:53:07.452Z,9.93
2017-11-13T14:55:35.100Z,9.23
2017-11-13T14:58:02.631Z,8.97
2017-11-13T15:00:30.947Z,11.00
2017-11-13T15:02:58.475Z,12.40
2017-11-13T15:05:26.774Z,6.37
2017-11-13T15:07:54.296Z,10.57
2017-11-13T15:10:22.208Z,8.27
2017-11-13T15:12:50.504Z,6.17
2017-11-13T15:15:18.040Z,17.80
2017-11-13T15:17:45.627Z,10.27
2017-11-13T15:20:13.233Z,9.20
2017-11-13T15:22:40.866Z,8.67
2017-11-13T15:25:08.439Z,7.60
2017-11-13T15:27:36.836Z,9.07
2017-11-13T15:30:04.510Z,13.00
2017-11-13T15:32:32.961Z,8.07
2017-11-13T15:35:01.403Z,10.93
2017-11-13T15:37:29.057Z,9.27
2017-11-13T15:39:56.575Z,10.87
2017-11-13T15:42:24.183Z,5.30
2017-11-13T15:44:51.768Z,8.20
2017-11-13T15:47:19.393Z,9.87
2017-11-13T15:49:47.030Z,10.63
2017-11-13T15:52:15.418Z,9.33
2017-11-13T15:54:43.822Z,9.60
2017-11-13T15:57:11.404Z,9.30
2017-11-13T15:59:39.015Z,11.47
2017-11-13T16:02:07.409Z,9.53
2017-11-13T16:04:35.024Z,15.03
2017-11-13T16:07:02.520Z,8.50
2017-11-13T16:09:31.094Z,7.30
2017-11-13T16:11:58.628Z,8.17
2017-11-13T16:14:26.139Z,10.43
2017-11-13T16:16:53.690Z,7.70
2017-11-13T16:19:21.234Z,7.00
2017-11-13T16:21:48.776Z,9.53
2017-11-13T16:24:16.277Z,8.87
2017-11-13T16:26:44.083Z,8.73
2017-11-13T16:29:11.867Z,13.23
2017-11-13T16:31:39.421Z,8.40
2017-11-13T16:34:06.971Z,17.30
2017-11-13T16:36:34.531Z,11.97
2017-11-13T16:39:02.125Z,17.07
2017-11-13T16:41:29.649Z,11.30
2017-11-13T16:43:57.454Z,9.23
2017-11-13T16:46:24.983Z,18.53
2017-11-13T16:48:52.515Z,14.50
2017-11-13T16:51:20.062Z,15.37
2017-11-13T16:53:47.586Z,19.87
2017-11-13T16:56:15.177Z,16.57
2017-11-13T16:58:43.469Z,16.73
2017-11-13T17:01:11.293Z,16.53
2017-11-13T17:03:39.441Z,12.07
2017-11-13T17:06:06.952Z,10.83
2017-11-13T17:08:35.270Z,13.43
2017-11-13T17:11:02.780Z,12.30
2017-11-13T17:13:30.374Z,13.70
2017-11-13T17:15:57.908Z,15.20
2017-11-13T17:18:26.492Z,10.80
2017-11-13T17:20:54.775Z,11.70
2017-11-13T17:23:23.050Z,15.23
2017-11-13T17:25:51.427Z,20.17
2017-11-13T17:28:19.708Z,14.93
2017-11-13T17:30:48.045Z,10.77
2017-11-13T17:33:15.586Z,15.63
2017-11-13T17:35:43.462Z,14.00
2017-11-13T17:38:11.732Z,11.00
2017-11-13T17:40:40.450Z,12.10
2017-11-13T17:43:08.091Z,13.33
2017-11-13T17:45:35.645Z,13.90
2017-11-13T17:48:03.191Z,13.00
2017-11-13T17:50:30.860Z,13.83
2017-11-13T17:52:59.064Z,17.03
2017-11-13T17:55:26.651Z,17.07
2017-11-13T17:57:54.188Z,20.90
2017-11-13T18:00:21.721Z,15.47
2017-11-13T18:02:50.099Z,14.33
2017-11-13T18:05:18.387Z,15.73
2017-11-13T18:07:48.012Z,18.67
2017-11-13T18:10:17.635Z,18.40
2017-11-13T18:12:54.594Z,13.23
2017-11-13T18:15:24.629Z,22.80
2017-11-13T18:17:54.236Z,17.80
2017-11-13T18:20:21.779Z,13.43
2017-11-13T18:22:49.761Z,18.23
2017-11-13T18:25:19.292Z,19.77
2017-11-13T18:27:46.865Z,17.40
2017-11-13T18:30:16.163Z,18.90
2017-11-13T18:32:44.823Z,20.03
2017-11-13T18:35:12.344Z,18.23
2017-11-13T18:37:40.656Z,23.70
2017-11-13T18:40:09.228Z,20.03
2017-11-13T18:42:36.760Z,19.93
2017-11-13T18:45:06.231Z,17.40
2017-11-13T18:47:33.788Z,15.83
2017-11-13T18:50:01.626Z,18.17
2017-11-13T18:52:29.157Z,20.63
2017-11-13T18:54:56.730Z,15.23
2017-11-13T18:57:24.334Z,25.00
2017-11-13T18:59:51.871Z,16.70
2017-11-13T19:02:19.429Z,13.80
2017-11-13T19:04:46.967Z,15.23
2017-11-13T19:07:15.351Z,13.23
2017-11-13T19:09:42.944Z,0.60
2017-11-13T19:12:23.376Z,0.80
2017-11-13T19:14:50.908Z,2.70
2017-11-13T19:17:19.194Z,0.77
2017-11-13T19:19:46.786Z,0.80
2017-11-13T19:22:14.318Z,0.80
2017-11-13T19:24:41.874Z,0.63
2017-11-13T19:27:09.424Z,0.63
2017-11-13T19:29:37.272Z,4.50
2017-11-13T19:32:04.778Z,0.70
2017-11-13T19:34:32.303Z,0.80
2017-11-13T19:37:00.640Z,2.23
2017-11-13T19:39:29.221Z,0.70
2017-11-13T19:41:56.769Z,0.70
2017-11-13T19:44:24.275Z,2.10
2017-11-13T19:46:52.146Z,0.73
2017-11-13T19:49:20.488Z,2.07
2017-11-13T19:51:48.042Z,1.90
2017-11-13T19:57:03.499Z,0.90
2017-11-13T19:59:31.061Z,0.90
2017-11-13T20:01:58.598Z,1.50
2017-11-13T20:04:27.421Z,0.67
2017-11-13T20:06:55.208Z,1.37
2017-11-13T20:09:23.385Z,0.70
2017-11-13T20:11:50.928Z,0.70
2017-11-13T20:14:19.172Z,0.63
2017-11-13T20:16:47.928Z,1.70
2017-11-13T20:19:15.449Z,1.10
2017-11-13T20:21:43.306Z,0.80
2017-11-13T20:24:11.612Z,1.10
2017-11-13T20:26:39.157Z,1.37
2017-11-13T20:29:06.713Z,0.80
2017-11-13T20:31:34.241Z,1.33
2017-11-13T20:34:05.342Z,0.90
2017-11-13T20:36:33.694Z,2.70
2017-11-13T20:39:01.589Z,0.70
2017-11-13T20:41:47.565Z,1.37
2017-11-13T20:44:15.462Z,0.80
2017-11-13T20:46:42.994Z,1.47
2017-11-13T20:49:10.644Z,1.97
2017-11-13T20:51:38.522Z,3.20
2017-11-13T20:54:06.088Z,0.80
2017-11-13T20:56:33.699Z,0.70
2017-11-13T20:59:07.925Z,1.93
2017-11-13T21:01:35.724Z,0.60
2017-11-13T21:04:05.679Z,0.70
2017-11-13T21:06:33.467Z,0.90
2017-11-13T21:09:01.142Z,0.80
2017-11-13T21:11:28.678Z,1.23
2017-11-13T21:13:56.698Z,12.03
2017-11-13T21:16:24.219Z,13.03
2017-11-13T21:18:51.752Z,16.07
2017-11-13T21:21:19.336Z,16.63
2017-11-13T21:23:46.880Z,11.10
2017-11-13T21:26:14.710Z,15.07
2017-11-13T21:28:42.242Z,19.20
2017-11-13T21:31:17.051Z,16.53
2017-11-13T21:33:44.588Z,15.80
2017-11-13T21:36:12.108Z,19.23
2017-11-13T21:38:40.431Z,3.43
2017-11-13T21:41:07.998Z,0.70
2017-11-13T21:43:37.549Z,0.67
2017-11-13T21:46:05.904Z,0.70
2017-11-13T21:48:33.838Z,0.93
2017-11-13T21:51:01.359Z,0.83
2017-11-13T21:53:29.622Z,0.70
2017-11-13T21:55:57.162Z,1.10
2017-11-13T21:58:24.680Z,0.60
2017-11-13T22:00:52.320Z,0.70
2017-11-13T22:03:20.622Z,0.60
2017-11-13T22:05:48.487Z,0.90
2017-11-13T22:08:16.050Z,1.00
2017-11-13T22:10:43.567Z,0.70
2017-11-13T22:13:11.152Z,0.70
2017-11-13T22:15:39.409Z,0.70
2017-11-13T22:18:08.928Z,3.03
2017-11-13T22:20:37.248Z,0.80
2017-11-13T22:23:04.816Z,1.00
2017-11-13T22:25:32.354Z,0.97
2017-11-13T22:28:00.254Z,1.30
2017-11-13T22:30:27.780Z,0.80
2017-11-13T22:32:57.251Z,1.00
2017-11-13T22:35:25.662Z,0.90
2017-11-13T22:37:53.186Z,0.70
2017-11-13T22:40:21.040Z,1.10
2017-11-13T22:42:48.562Z,0.70
2017-11-13T22:45:16.073Z,0.60
2017-11-13T22:47:43.589Z,0.70
2017-11-13T22:50:11.119Z,0.60
2017-11-13T22:52:38.679Z,0.70
2017-11-13T22:55:20.380Z,0.70
2017-11-13T22:57:47.930Z,0.60
2017-11-13T23:00:18.500Z,0.63
2017-11-13T23:02:46.308Z,0.60
2017-11-13T23:05:37.214Z,0.60
2017-11-13T23:08:05.119Z,0.60
2017-11-13T23:10:32.626Z,0.80
2017-11-13T23:13:00.175Z,0.80
2017-11-13T23:15:27.704Z,0.70
2017-11-13T23:17:55.202Z,0.70
2017-11-13T23:20:22.747Z,0.60
2017-11-13T23:22:50.299Z,0.60
2017-11-13T23:25:33.320Z,0.70
2017-11-13T23:28:00.832Z,0.60
2017-11-13T23:30:29.128Z,0.60
2017-11-13T23:32:56.662Z,0.70
2017-11-13T23:35:24.185Z,0.87
2017-11-13T23:37:51.755Z,0.80
2017-11-13T23:40:23.123Z,0.70
2017-11-13T23:42:50.926Z,0.90
2017-11-13T23:45:18.444Z,0.90
2017-11-13T23:50:59.379Z,0.77
2017-11-13T23:53:27.216Z,0.80
2017-11-13T23:55:54.784Z,0.90
2017-11-13T23:58:22.378Z,0.90
